sensor_id;sensor_type;location;lat;lon;timestamp;temperature;humidity
28959;DHT22;16066;0.000;0.000;2023-07-29T05:32:27;20.50;74.30
28959;DHT22;16066;0.000;0.000;2023-07-29T05:34:53;20.50;74.20
28959;DHT22;16066;0.000;0.000;2023-07-29T05:37:18;20.50;74.20
28959;DHT22;16066;0.000;0.000;2023-07-29T05:39:44;20.40;74.10
28959;DHT22;16066;0.000;0.000;2023-07-29T05:42:09;20.40;74.00
28959;DHT22;16066;0.000;0.000;2023-07-29T05:44:35;20.40;74.10
28959;DHT22;16066;0.000;0.000;2023-07-29T05:47:01;20.40;73.90
28959;DHT22;16066;0.000;0.000;2023-07-29T05:49:27;20.40;74.00
28959;DHT22;16066;0.000;0.000;2023-07-29T05:51:52;20.40;73.90
28959;DHT22;16066;0.000;0.000;2023-07-29T05:54:18;20.40;73.90
28959;DHT22;16066;0.000;0.000;2023-07-29T05:56:44;20.40;73.90
28959;DHT22;16066;0.000;0.000;2023-07-29T05:59:10;20.40;73.90
28959;DHT22;16066;0.000;0.000;2023-07-29T06:01:35;20.40;73.80
28959;DHT22;16066;0.000;0.000;2023-07-29T06:04:01;20.40;73.80
28959;DHT22;16066;0.000;0.000;2023-07-29T06:06:26;20.40;73.70
28959;DHT22;16066;0.000;0.000;2023-07-29T06:08:52;20.40;73.70
28959;DHT22;16066;0.000;0.000;2023-07-29T06:11:17;20.40;73.80
28959;DHT22;16066;0.000;0.000;2023-07-29T06:13:43;20.40;73.50
28959;DHT22;16066;0.000;0.000;2023-07-29T06:16:09;20.40;73.50
28959;DHT22;16066;0.000;0.000;2023-07-29T06:18:34;20.40;73.40
28959;DHT22;16066;0.000;0.000;2023-07-29T06:21:00;20.40;73.50
28959;DHT22;16066;0.000;0.000;2023-07-29T06:23:25;20.40;73.50
28959;DHT22;16066;0.000;0.000;2023-07-29T06:25:51;20.40;73.30
28959;DHT22;16066;0.000;0.000;2023-07-29T06:28:16;20.30;73.00
28959;DHT22;16066;0.000;0.000;2023-07-29T06:30:42;20.40;73.10
28959;DHT22;16066;0.000;0.000;2023-07-29T06:33:07;20.40;72.80
28959;DHT22;16066;0.000;0.000;2023-07-29T06:35:34;20.40;72.60
28959;DHT22;16066;0.000;0.000;2023-07-29T06:37:59;20.30;72.40
28959;DHT22;16066;0.000;0.000;2023-07-29T06:40:25;20.30;72.30
28959;DHT22;16066;0.000;0.000;2023-07-29T06:42:50;20.30;72.40
28959;DHT22;16066;0.000;0.000;2023-07-29T06:45:16;20.30;72.20
28959;DHT22;16066;0.000;0.000;2023-07-29T06:47:41;20.30;72.00
28959;DHT22;16066;0.000;0.000;2023-07-29T06:50:07;20.30;71.80
28959;DHT22;16066;0.000;0.000;2023-07-29T06:52:33;20.30;71.80
28959;DHT22;16066;0.000;0.000;2023-07-29T06:54:58;20.30;72.40
28959;DHT22;16066;0.000;0.000;2023-07-29T06:57:24;20.30;71.70
28959;DHT22;16066;0.000;0.000;2023-07-29T06:59:49;20.30;71.60
28959;DHT22;16066;0.000;0.000;2023-07-29T07:02:15;20.30;71.50
28959;DHT22;16066;0.000;0.000;2023-07-29T07:04:40;20.30;71.40
28959;DHT22;16066;0.000;0.000;2023-07-29T07:07:06;20.30;71.30
28959;DHT22;16066;0.000;0.000;2023-07-29T07:09:31;20.30;71.10
28959;DHT22;16066;0.000;0.000;2023-07-29T07:11:57;20.20;71.00
28959;DHT22;16066;0.000;0.000;2023-07-29T07:14:23;20.20;71.30
28959;DHT22;16066;0.000;0.000;2023-07-29T07:16:48;20.20;71.40
28959;DHT22;16066;0.000;0.000;2023-07-29T07:19:13;20.20;71.10
28959;DHT22;16066;0.000;0.000;2023-07-29T07:21:39;20.20;71.10
28959;DHT22;16066;0.000;0.000;2023-07-29T07:24:05;20.30;71.30
28959;DHT22;16066;0.000;0.000;2023-07-29T07:26:31;20.30;70.90
28959;DHT22;16066;0.000;0.000;2023-07-29T07:28:56;20.30;70.60
28959;DHT22;16066;0.000;0.000;2023-07-29T07:31:22;20.30;70.40
28959;DHT22;16066;0.000;0.000;2023-07-29T07:33:48;20.30;70.20
28959;DHT22;16066;0.000;0.000;2023-07-29T07:36:14;20.30;69.80
28959;DHT22;16066;0.000;0.000;2023-07-29T07:38:41;20.30;69.60
28959;DHT22;16066;0.000;0.000;2023-07-29T07:41:06;20.30;69.20
28959;DHT22;16066;0.000;0.000;2023-07-29T07:43:32;20.30;68.90
28959;DHT22;16066;0.000;0.000;2023-07-29T07:45:58;20.30;68.40
28959;DHT22;16066;0.000;0.000;2023-07-29T07:48:25;20.30;68.50
28959;DHT22;16066;0.000;0.000;2023-07-29T07:50:50;20.30;68.70
28959;DHT22;16066;0.000;0.000;2023-07-29T07:53:16;20.30;68.70
28959;DHT22;16066;0.000;0.000;2023-07-29T07:55:41;20.30;68.90
28959;DHT22;16066;0.000;0.000;2023-07-29T07:58:07;20.30;68.90
28959;DHT22;16066;0.000;0.000;2023-07-29T08:00:32;20.30;69.00
28959;DHT22;16066;0.000;0.000;2023-07-29T08:02:58;20.30;68.70
28959;DHT22;16066;0.000;0.000;2023-07-29T08:05:23;20.30;68.70
28959;DHT22;16066;0.000;0.000;2023-07-29T08:07:49;20.30;68.70
28959;DHT22;16066;0.000;0.000;2023-07-29T08:10:14;20.30;68.90
28959;DHT22;16066;0.000;0.000;2023-07-29T08:12:40;20.30;69.20
28959;DHT22;16066;0.000;0.000;2023-07-29T08:15:06;20.30;69.10
28959;DHT22;16066;0.000;0.000;2023-07-29T08:17:32;20.30;68.90
28959;DHT22;16066;0.000;0.000;2023-07-29T08:19:57;20.30;68.80
28959;DHT22;16066;0.000;0.000;2023-07-29T08:22:23;20.30;68.70
28959;DHT22;16066;0.000;0.000;2023-07-29T08:24:49;20.30;68.60
28959;DHT22;16066;0.000;0.000;2023-07-29T08:27:14;20.30;68.40
28959;DHT22;16066;0.000;0.000;2023-07-29T08:29:40;20.30;68.10
28959;DHT22;16066;0.000;0.000;2023-07-29T08:32:05;20.30;68.10
28959;DHT22;16066;0.000;0.000;2023-07-29T08:34:31;20.30;68.10
28959;DHT22;16066;0.000;0.000;2023-07-29T08:36:56;20.30;68.00
28959;DHT22;16066;0.000;0.000;2023-07-29T08:39:22;20.30;68.10
28959;DHT22;16066;0.000;0.000;2023-07-29T08:41:57;20.30;67.90
28959;DHT22;16066;0.000;0.000;2023-07-29T08:44:26;20.30;67.90
28959;DHT22;16066;0.000;0.000;2023-07-29T08:46:54;20.30;67.80
28959;DHT22;16066;0.000;0.000;2023-07-29T08:49:21;20.30;67.60
28959;DHT22;16066;0.000;0.000;2023-07-29T08:51:49;20.30;67.30
28959;DHT22;16066;0.000;0.000;2023-07-29T08:54:15;20.30;67.10
28959;DHT22;16066;0.000;0.000;2023-07-29T08:56:41;20.30;66.90
28959;DHT22;16066;0.000;0.000;2023-07-29T08:59:08;20.30;66.90
28959;DHT22;16066;0.000;0.000;2023-07-29T09:01:34;20.40;66.90
28959;DHT22;16066;0.000;0.000;2023-07-29T09:03:59;20.40;66.90
28959;DHT22;16066;0.000;0.000;2023-07-29T09:06:25;20.40;66.20
28959;DHT22;16066;0.000;0.000;2023-07-29T09:08:53;20.40;66.80
28959;DHT22;16066;0.000;0.000;2023-07-29T09:11:20;20.50;66.80
28959;DHT22;16066;0.000;0.000;2023-07-29T09:13:46;20.50;66.60
28959;DHT22;16066;0.000;0.000;2023-07-29T09:16:12;20.50;66.20
28959;DHT22;16066;0.000;0.000;2023-07-29T09:18:38;20.50;66.00
28959;DHT22;16066;0.000;0.000;2023-07-29T09:21:04;20.60;65.90
28959;DHT22;16066;0.000;0.000;2023-07-29T09:23:39;20.60;65.80
28959;DHT22;16066;0.000;0.000;2023-07-29T09:26:05;20.60;65.50
28959;DHT22;16066;0.000;0.000;2023-07-29T09:28:36;20.70;65.60
28959;DHT22;16066;0.000;0.000;2023-07-29T09:31:02;20.70;65.70
28959;DHT22;16066;0.000;0.000;2023-07-29T09:33:29;20.80;66.00
28959;DHT22;16066;0.000;0.000;2023-07-29T09:35:54;20.80;66.00
28959;DHT22;16066;0.000;0.000;2023-07-29T09:38:29;20.90;66.10
28959;DHT22;16066;0.000;0.000;2023-07-29T09:40:56;20.80;65.70
28959;DHT22;16066;0.000;0.000;2023-07-29T09:43:26;20.90;65.70
28959;DHT22;16066;0.000;0.000;2023-07-29T09:45:54;20.90;65.50
28959;DHT22;16066;0.000;0.000;2023-07-29T09:48:22;21.00;65.60
28959;DHT22;16066;0.000;0.000;2023-07-29T09:50:48;21.00;65.60
28959;DHT22;16066;0.000;0.000;2023-07-29T09:53:14;21.00;65.60
28959;DHT22;16066;0.000;0.000;2023-07-29T09:55:40;21.10;65.70
28959;DHT22;16066;0.000;0.000;2023-07-29T09:58:11;21.10;65.80
28959;DHT22;16066;0.000;0.000;2023-07-29T10:00:36;21.20;65.80
28959;DHT22;16066;0.000;0.000;2023-07-29T10:03:04;21.20;65.30
28959;DHT22;16066;0.000;0.000;2023-07-29T10:05:30;21.20;65.20
28959;DHT22;16066;0.000;0.000;2023-07-29T10:07:56;21.20;65.00
28959;DHT22;16066;0.000;0.000;2023-07-29T10:10:22;21.20;65.00
28959;DHT22;16066;0.000;0.000;2023-07-29T10:12:48;21.20;65.00
28959;DHT22;16066;0.000;0.000;2023-07-29T10:15:13;21.20;65.00
28959;DHT22;16066;0.000;0.000;2023-07-29T10:17:40;21.20;64.90
28959;DHT22;16066;0.000;0.000;2023-07-29T10:20:08;21.20;64.90
28959;DHT22;16066;0.000;0.000;2023-07-29T10:22:42;21.30;64.70
28959;DHT22;16066;0.000;0.000;2023-07-29T10:28:04;21.30;64.70
28959;DHT22;16066;0.000;0.000;2023-07-29T10:30:28;21.30;64.70
28959;DHT22;16066;0.000;0.000;2023-07-29T10:32:58;21.30;64.60
28959;DHT22;16066;0.000;0.000;2023-07-29T10:35:23;21.40;64.60
28959;DHT22;16066;0.000;0.000;2023-07-29T10:37:51;21.40;64.60
28959;DHT22;16066;0.000;0.000;2023-07-29T10:40:18;21.40;64.60
28959;DHT22;16066;0.000;0.000;2023-07-29T10:43:10;21.50;64.70
28959;DHT22;16066;0.000;0.000;2023-07-29T10:45:38;21.50;65.00
28959;DHT22;16066;0.000;0.000;2023-07-29T10:48:09;21.50;64.50
28959;DHT22;16066;0.000;0.000;2023-07-29T10:50:35;21.50;64.30
28959;DHT22;16066;0.000;0.000;2023-07-29T10:53:01;21.50;64.20
28959;DHT22;16066;0.000;0.000;2023-07-29T10:55:32;21.60;64.40
28959;DHT22;16066;0.000;0.000;2023-07-29T10:58:15;21.60;65.00
28959;DHT22;16066;0.000;0.000;2023-07-29T11:00:44;21.70;64.00
28959;DHT22;16066;0.000;0.000;2023-07-29T11:03:12;21.70;63.90
28959;DHT22;16066;0.000;0.000;2023-07-29T11:08:28;21.70;63.40
28959;DHT22;16066;0.000;0.000;2023-07-29T11:13:33;21.80;63.50
28959;DHT22;16066;0.000;0.000;2023-07-29T11:15:59;21.80;63.30
28959;DHT22;16066;0.000;0.000;2023-07-29T11:18:28;21.80;63.70
28959;DHT22;16066;0.000;0.000;2023-07-29T11:20:54;21.80;63.30
28959;DHT22;16066;0.000;0.000;2023-07-29T11:23:20;21.90;63.10
28959;DHT22;16066;0.000;0.000;2023-07-29T11:25:52;21.80;63.00
28959;DHT22;16066;0.000;0.000;2023-07-29T11:28:18;21.80;63.10
28959;DHT22;16066;0.000;0.000;2023-07-29T11:30:43;21.90;63.20
28959;DHT22;16066;0.000;0.000;2023-07-29T11:33:10;21.90;63.50
28959;DHT22;16066;0.000;0.000;2023-07-29T11:35:36;22.00;63.50
28959;DHT22;16066;0.000;0.000;2023-07-29T11:38:02;22.00;63.30
28959;DHT22;16066;0.000;0.000;2023-07-29T11:40:28;22.00;63.40
28959;DHT22;16066;0.000;0.000;2023-07-29T11:42:54;22.00;63.60
28959;DHT22;16066;0.000;0.000;2023-07-29T11:45:21;22.10;63.50
28959;DHT22;16066;0.000;0.000;2023-07-29T11:47:47;22.10;63.40
28959;DHT22;16066;0.000;0.000;2023-07-29T11:50:14;22.10;63.30
28959;DHT22;16066;0.000;0.000;2023-07-29T11:52:41;22.20;63.20
28959;DHT22;16066;0.000;0.000;2023-07-29T11:55:08;22.10;62.90
28959;DHT22;16066;0.000;0.000;2023-07-29T11:57:35;22.10;62.80
28959;DHT22;16066;0.000;0.000;2023-07-29T12:00:06;22.10;62.90
28959;DHT22;16066;0.000;0.000;2023-07-29T12:02:32;22.10;63.00
28959;DHT22;16066;0.000;0.000;2023-07-29T12:04:59;22.20;63.20
28959;DHT22;16066;0.000;0.000;2023-07-29T12:07:25;22.20;63.20
28959;DHT22;16066;0.000;0.000;2023-07-29T12:09:52;22.20;63.20
28959;DHT22;16066;0.000;0.000;2023-07-29T12:12:17;22.20;63.30
28959;DHT22;16066;0.000;0.000;2023-07-29T12:14:46;22.30;63.40
28959;DHT22;16066;0.000;0.000;2023-07-29T12:17:12;22.30;63.40
28959;DHT22;16066;0.000;0.000;2023-07-29T12:19:39;22.30;63.30
28959;DHT22;16066;0.000;0.000;2023-07-29T12:22:07;22.40;63.20
28959;DHT22;16066;0.000;0.000;2023-07-29T12:24:35;22.30;62.90
28959;DHT22;16066;0.000;0.000;2023-07-29T12:27:01;22.40;62.70
28959;DHT22;16066;0.000;0.000;2023-07-29T12:29:27;22.40;62.50
28959;DHT22;16066;0.000;0.000;2023-07-29T12:32:03;22.40;62.50
28959;DHT22;16066;0.000;0.000;2023-07-29T12:34:30;22.50;62.50
28959;DHT22;16066;0.000;0.000;2023-07-29T12:36:58;22.50;62.50
28959;DHT22;16066;0.000;0.000;2023-07-29T12:39:29;22.50;62.40
28959;DHT22;16066;0.000;0.000;2023-07-29T12:41:57;22.40;62.20
28959;DHT22;16066;0.000;0.000;2023-07-29T12:44:24;22.50;62.20
28959;DHT22;16066;0.000;0.000;2023-07-29T12:46:50;22.50;62.10
28959;DHT22;16066;0.000;0.000;2023-07-29T12:49:17;22.50;62.00
28959;DHT22;16066;0.000;0.000;2023-07-29T12:51:42;22.50;62.00
28959;DHT22;16066;0.000;0.000;2023-07-29T12:54:08;22.50;61.90
28959;DHT22;16066;0.000;0.000;2023-07-29T12:56:34;22.50;61.60
28959;DHT22;16066;0.000;0.000;2023-07-29T12:59:00;22.50;61.60
28959;DHT22;16066;0.000;0.000;2023-07-29T13:01:26;22.50;61.70
28959;DHT22;16066;0.000;0.000;2023-07-29T13:03:53;22.50;61.80
28959;DHT22;16066;0.000;0.000;2023-07-29T13:06:19;22.70;62.10
28959;DHT22;16066;0.000;0.000;2023-07-29T13:08:45;22.70;61.90
28959;DHT22;16066;0.000;0.000;2023-07-29T13:11:11;22.70;61.80
28959;DHT22;16066;0.000;0.000;2023-07-29T13:13:36;22.70;61.70
28959;DHT22;16066;0.000;0.000;2023-07-29T13:16:02;22.70;61.70
28959;DHT22;16066;0.000;0.000;2023-07-29T13:18:28;22.70;61.60
28959;DHT22;16066;0.000;0.000;2023-07-29T13:20:54;22.80;61.70
28959;DHT22;16066;0.000;0.000;2023-07-29T13:23:19;22.80;62.00
28959;DHT22;16066;0.000;0.000;2023-07-29T13:25:45;22.80;62.00
28959;DHT22;16066;0.000;0.000;2023-07-29T13:28:11;22.80;61.80
28959;DHT22;16066;0.000;0.000;2023-07-29T13:30:38;22.80;61.80
28959;DHT22;16066;0.000;0.000;2023-07-29T13:33:04;22.80;62.00
28959;DHT22;16066;0.000;0.000;2023-07-29T13:35:30;22.70;61.90
28959;DHT22;16066;0.000;0.000;2023-07-29T13:37:56;22.70;62.00
28959;DHT22;16066;0.000;0.000;2023-07-29T13:40:21;22.70;62.60
28959;DHT22;16066;0.000;0.000;2023-07-29T13:42:47;22.70;62.20
28959;DHT22;16066;0.000;0.000;2023-07-29T13:45:12;22.60;61.60
28959;DHT22;16066;0.000;0.000;2023-07-29T13:47:38;22.60;63.20
28959;DHT22;16066;0.000;0.000;2023-07-29T13:50:04;22.70;62.10
28959;DHT22;16066;0.000;0.000;2023-07-29T13:52:30;22.60;61.70
28959;DHT22;16066;0.000;0.000;2023-07-29T13:54:55;22.60;61.90
28959;DHT22;16066;0.000;0.000;2023-07-29T13:57:21;22.60;63.00
28959;DHT22;16066;0.000;0.000;2023-07-29T13:59:46;22.60;62.90
28959;DHT22;16066;0.000;0.000;2023-07-29T14:02:12;22.60;62.70
28959;DHT22;16066;0.000;0.000;2023-07-29T14:04:38;22.60;62.50
28959;DHT22;16066;0.000;0.000;2023-07-29T14:07:04;22.60;62.30
28959;DHT22;16066;0.000;0.000;2023-07-29T14:09:29;22.60;62.30
28959;DHT22;16066;0.000;0.000;2023-07-29T14:11:55;22.60;62.40
28959;DHT22;16066;0.000;0.000;2023-07-29T14:14:20;22.60;62.40
28959;DHT22;16066;0.000;0.000;2023-07-29T14:16:46;22.60;62.40
28959;DHT22;16066;0.000;0.000;2023-07-29T14:19:12;22.60;62.40
28959;DHT22;16066;0.000;0.000;2023-07-29T14:21:38;22.70;62.60
28959;DHT22;16066;0.000;0.000;2023-07-29T14:24:03;22.70;62.30
28959;DHT22;16066;0.000;0.000;2023-07-29T14:26:29;22.70;62.30
28959;DHT22;16066;0.000;0.000;2023-07-29T14:28:55;22.70;61.90
28959;DHT22;16066;0.000;0.000;2023-07-29T14:31:20;22.70;61.80
28959;DHT22;16066;0.000;0.000;2023-07-29T14:33:46;22.60;61.90
28959;DHT22;16066;0.000;0.000;2023-07-29T14:36:11;22.60;61.90
28959;DHT22;16066;0.000;0.000;2023-07-29T14:38:37;22.60;62.60
28959;DHT22;16066;0.000;0.000;2023-07-29T14:41:03;22.50;63.20
28959;DHT22;16066;0.000;0.000;2023-07-29T14:43:30;22.60;63.80
28959;DHT22;16066;0.000;0.000;2023-07-29T14:45:55;22.50;64.10
28959;DHT22;16066;0.000;0.000;2023-07-29T14:48:21;22.60;64.10
28959;DHT22;16066;0.000;0.000;2023-07-29T14:50:47;22.50;64.20
28959;DHT22;16066;0.000;0.000;2023-07-29T14:53:13;22.60;64.50
28959;DHT22;16066;0.000;0.000;2023-07-29T14:55:38;22.60;64.50
28959;DHT22;16066;0.000;0.000;2023-07-29T14:58:04;22.70;64.50
28959;DHT22;16066;0.000;0.000;2023-07-29T15:00:29;22.70;64.40
28959;DHT22;16066;0.000;0.000;2023-07-29T15:02:55;22.70;64.40
28959;DHT22;16066;0.000;0.000;2023-07-29T15:05:20;22.70;64.40
28959;DHT22;16066;0.000;0.000;2023-07-29T15:07:46;22.80;64.40
28959;DHT22;16066;0.000;0.000;2023-07-29T15:10:16;22.80;64.30
28959;DHT22;16066;0.000;0.000;2023-07-29T15:12:42;22.80;64.90
28959;DHT22;16066;0.000;0.000;2023-07-29T15:15:08;22.80;64.60
28959;DHT22;16066;0.000;0.000;2023-07-29T15:17:34;22.80;65.00
28959;DHT22;16066;0.000;0.000;2023-07-29T15:19:59;22.80;65.10
28959;DHT22;16066;0.000;0.000;2023-07-29T15:22:25;22.80;64.70
28959;DHT22;16066;0.000;0.000;2023-07-29T15:24:51;22.80;64.50
28959;DHT22;16066;0.000;0.000;2023-07-29T15:27:16;22.90;64.20
28959;DHT22;16066;0.000;0.000;2023-07-29T15:29:42;22.90;64.00
28959;DHT22;16066;0.000;0.000;2023-07-29T15:32:07;23.00;64.00
28959;DHT22;16066;0.000;0.000;2023-07-29T15:34:33;23.00;63.90
28959;DHT22;16066;0.000;0.000;2023-07-29T15:36:59;23.00;63.70
28959;DHT22;16066;0.000;0.000;2023-07-29T15:39:25;23.10;63.70
28959;DHT22;16066;0.000;0.000;2023-07-29T15:41:51;23.10;63.60
28959;DHT22;16066;0.000;0.000;2023-07-29T15:44:17;23.10;63.50
28959;DHT22;16066;0.000;0.000;2023-07-29T15:46:43;23.20;63.40
28959;DHT22;16066;0.000;0.000;2023-07-29T15:49:08;23.20;63.20
28959;DHT22;16066;0.000;0.000;2023-07-29T15:51:35;23.20;62.70
28959;DHT22;16066;0.000;0.000;2023-07-29T15:54:00;23.20;62.50
28959;DHT22;16066;0.000;0.000;2023-07-29T15:56:29;23.20;62.30
28959;DHT22;16066;0.000;0.000;2023-07-29T15:58:56;23.30;62.20
28959;DHT22;16066;0.000;0.000;2023-07-29T16:01:22;23.30;62.10
28959;DHT22;16066;0.000;0.000;2023-07-29T16:03:48;23.30;62.00
28959;DHT22;16066;0.000;0.000;2023-07-29T16:06:14;23.40;62.20
28959;DHT22;16066;0.000;0.000;2023-07-29T16:08:39;23.40;62.20
28959;DHT22;16066;0.000;0.000;2023-07-29T16:11:05;23.40;62.10
28959;DHT22;16066;0.000;0.000;2023-07-29T16:13:30;23.40;61.70
28959;DHT22;16066;0.000;0.000;2023-07-29T16:15:56;23.40;61.50
28959;DHT22;16066;0.000;0.000;2023-07-29T16:18:24;23.40;61.00
28959;DHT22;16066;0.000;0.000;2023-07-29T16:20:49;23.40;60.80
28959;DHT22;16066;0.000;0.000;2023-07-29T16:23:15;23.40;60.70
28959;DHT22;16066;0.000;0.000;2023-07-29T16:25:41;23.40;60.90
28959;DHT22;16066;0.000;0.000;2023-07-29T16:28:06;23.40;60.90
28959;DHT22;16066;0.000;0.000;2023-07-29T16:30:32;23.40;61.00
28959;DHT22;16066;0.000;0.000;2023-07-29T16:32:58;23.40;61.00
28959;DHT22;16066;0.000;0.000;2023-07-29T16:35:23;23.40;60.90
28959;DHT22;16066;0.000;0.000;2023-07-29T16:37:49;23.30;60.90
28959;DHT22;16066;0.000;0.000;2023-07-29T16:40:16;23.30;60.90
28959;DHT22;16066;0.000;0.000;2023-07-29T16:42:41;23.30;61.10
28959;DHT22;16066;0.000;0.000;2023-07-29T16:45:07;23.30;61.10
28959;DHT22;16066;0.000;0.000;2023-07-29T16:47:33;23.30;61.00
28959;DHT22;16066;0.000;0.000;2023-07-29T16:49:59;23.30;61.00
28959;DHT22;16066;0.000;0.000;2023-07-29T16:52:25;23.30;61.00
28959;DHT22;16066;0.000;0.000;2023-07-29T16:54:50;23.30;60.90
28959;DHT22;16066;0.000;0.000;2023-07-29T16:57:16;23.30;61.00
28959;DHT22;16066;0.000;0.000;2023-07-29T16:59:41;23.30;60.80
28959;DHT22;16066;0.000;0.000;2023-07-29T17:02:07;23.20;60.70
28959;DHT22;16066;0.000;0.000;2023-07-29T17:04:33;23.20;61.30
28959;DHT22;16066;0.000;0.000;2023-07-29T17:06:58;23.20;60.60
28959;DHT22;16066;0.000;0.000;2023-07-29T17:09:24;23.20;60.70
28959;DHT22;16066;0.000;0.000;2023-07-29T17:11:49;23.10;60.70
28959;DHT22;16066;0.000;0.000;2023-07-29T17:14:15;23.20;61.20
28959;DHT22;16066;0.000;0.000;2023-07-29T17:16:41;23.10;60.90
28959;DHT22;16066;0.000;0.000;2023-07-29T17:19:06;23.10;60.90
28959;DHT22;16066;0.000;0.000;2023-07-29T17:21:32;23.10;61.00
28959;DHT22;16066;0.000;0.000;2023-07-29T17:23:57;23.10;61.20
28959;DHT22;16066;0.000;0.000;2023-07-29T17:26:23;23.00;61.10
28959;DHT22;16066;0.000;0.000;2023-07-29T17:28:48;23.00;61.20
28959;DHT22;16066;0.000;0.000;2023-07-29T17:31:14;23.00;61.40
28959;DHT22;16066;0.000;0.000;2023-07-29T17:33:40;23.00;61.50
28959;DHT22;16066;0.000;0.000;2023-07-29T17:36:05;23.00;61.50
28959;DHT22;16066;0.000;0.000;2023-07-29T17:38:31;23.00;61.70
28959;DHT22;16066;0.000;0.000;2023-07-29T17:40:56;23.00;62.20
28959;DHT22;16066;0.000;0.000;2023-07-29T17:43:26;22.90;62.00
28959;DHT22;16066;0.000;0.000;2023-07-29T17:45:52;22.90;62.20
28959;DHT22;16066;0.000;0.000;2023-07-29T17:48:17;22.90;62.40
28959;DHT22;16066;0.000;0.000;2023-07-29T17:50:43;22.90;62.50
28959;DHT22;16066;0.000;0.000;2023-07-29T17:53:08;22.90;62.60
28959;DHT22;16066;0.000;0.000;2023-07-29T17:55:37;22.90;62.70
28959;DHT22;16066;0.000;0.000;2023-07-29T17:58:03;22.90;62.80
28959;DHT22;16066;0.000;0.000;2023-07-29T18:00:30;22.80;62.80
28959;DHT22;16066;0.000;0.000;2023-07-29T18:02:56;22.80;62.90
28959;DHT22;16066;0.000;0.000;2023-07-29T18:05:21;22.80;63.10
28959;DHT22;16066;0.000;0.000;2023-07-29T18:07:47;22.80;63.30
28959;DHT22;16066;0.000;0.000;2023-07-29T18:10:13;22.80;63.30
28959;DHT22;16066;0.000;0.000;2023-07-29T18:12:38;22.80;63.40
28959;DHT22;16066;0.000;0.000;2023-07-29T18:15:07;22.80;63.30
28959;DHT22;16066;0.000;0.000;2023-07-29T18:17:33;22.80;63.30
28959;DHT22;16066;0.000;0.000;2023-07-29T18:19:59;22.80;63.30
28959;DHT22;16066;0.000;0.000;2023-07-29T18:22:24;22.80;63.30
28959;DHT22;16066;0.000;0.000;2023-07-29T18:24:50;22.80;63.40
28959;DHT22;16066;0.000;0.000;2023-07-29T18:27:15;22.80;63.40
28959;DHT22;16066;0.000;0.000;2023-07-29T18:29:41;22.80;63.40
28959;DHT22;16066;0.000;0.000;2023-07-29T18:32:07;22.80;63.50
28959;DHT22;16066;0.000;0.000;2023-07-29T18:34:32;22.80;63.70
28959;DHT22;16066;0.000;0.000;2023-07-29T18:36:58;22.80;63.90
28959;DHT22;16066;0.000;0.000;2023-07-29T18:39:23;22.80;64.00
28959;DHT22;16066;0.000;0.000;2023-07-29T18:41:49;22.80;64.50
28959;DHT22;16066;0.000;0.000;2023-07-29T18:44:14;22.80;64.80
28959;DHT22;16066;0.000;0.000;2023-07-29T18:46:40;22.80;64.90
28959;DHT22;16066;0.000;0.000;2023-07-29T18:49:05;22.80;65.00
28959;DHT22;16066;0.000;0.000;2023-07-29T18:51:33;22.80;64.90
28959;DHT22;16066;0.000;0.000;2023-07-29T18:54:04;22.80;64.80
28959;DHT22;16066;0.000;0.000;2023-07-29T18:56:30;22.70;65.00
28959;DHT22;16066;0.000;0.000;2023-07-29T18:58:55;22.70;65.50
28959;DHT22;16066;0.000;0.000;2023-07-29T19:01:21;22.70;66.10
28959;DHT22;16066;0.000;0.000;2023-07-29T19:03:50;22.60;66.50
28959;DHT22;16066;0.000;0.000;2023-07-29T19:06:17;22.60;66.70
28959;DHT22;16066;0.000;0.000;2023-07-29T19:08:42;22.50;67.00
28959;DHT22;16066;0.000;0.000;2023-07-29T19:11:09;22.40;67.70
28959;DHT22;16066;0.000;0.000;2023-07-29T19:13:35;22.40;67.60
28959;DHT22;16066;0.000;0.000;2023-07-29T19:16:01;22.30;67.90
28959;DHT22;16066;0.000;0.000;2023-07-29T19:18:32;22.30;68.30
28959;DHT22;16066;0.000;0.000;2023-07-29T19:20:58;22.20;68.30
28959;DHT22;16066;0.000;0.000;2023-07-29T19:23:23;22.20;68.40
28959;DHT22;16066;0.000;0.000;2023-07-29T19:25:50;22.20;68.40
28959;DHT22;16066;0.000;0.000;2023-07-29T19:28:16;22.10;68.80
28959;DHT22;16066;0.000;0.000;2023-07-29T19:30:43;22.10;68.90
28959;DHT22;16066;0.000;0.000;2023-07-29T19:33:08;22.10;69.00
28959;DHT22;16066;0.000;0.000;2023-07-29T19:35:34;22.10;68.70
28959;DHT22;16066;0.000;0.000;2023-07-29T19:37:59;22.10;68.70
28959;DHT22;16066;0.000;0.000;2023-07-29T19:40:25;22.20;68.70
28959;DHT22;16066;0.000;0.000;2023-07-29T19:42:54;22.20;68.50
28959;DHT22;16066;0.000;0.000;2023-07-29T19:45:20;22.20;68.80
28959;DHT22;16066;0.000;0.000;2023-07-29T19:47:45;22.10;69.00
28959;DHT22;16066;0.000;0.000;2023-07-29T19:50:11;22.20;69.00
28959;DHT22;16066;0.000;0.000;2023-07-29T19:52:37;22.10;68.80
28959;DHT22;16066;0.000;0.000;2023-07-29T19:55:02;22.10;69.10
28959;DHT22;16066;0.000;0.000;2023-07-29T19:57:28;22.00;69.30
28959;DHT22;16066;0.000;0.000;2023-07-29T19:59:54;22.00;69.30
28959;DHT22;16066;0.000;0.000;2023-07-29T20:02:20;22.00;69.40
28959;DHT22;16066;0.000;0.000;2023-07-29T20:04:52;22.00;69.40
28959;DHT22;16066;0.000;0.000;2023-07-29T20:07:18;21.90;69.60
28959;DHT22;16066;0.000;0.000;2023-07-29T20:09:43;21.90;69.60
28959;DHT22;16066;0.000;0.000;2023-07-29T20:12:09;21.90;69.80
28959;DHT22;16066;0.000;0.000;2023-07-29T20:14:34;21.90;69.60
28959;DHT22;16066;0.000;0.000;2023-07-29T20:17:00;21.90;69.60
28959;DHT22;16066;0.000;0.000;2023-07-29T20:19:26;21.80;69.70
28959;DHT22;16066;0.000;0.000;2023-07-29T20:21:52;21.80;69.90
28959;DHT22;16066;0.000;0.000;2023-07-29T20:24:17;21.80;70.10
28959;DHT22;16066;0.000;0.000;2023-07-29T20:26:43;21.80;70.00
28959;DHT22;16066;0.000;0.000;2023-07-29T20:29:09;21.80;69.90
28959;DHT22;16066;0.000;0.000;2023-07-29T20:31:34;21.80;69.80
28959;DHT22;16066;0.000;0.000;2023-07-29T20:34:00;21.80;69.80
28959;DHT22;16066;0.000;0.000;2023-07-29T20:36:26;21.80;69.80
28959;DHT22;16066;0.000;0.000;2023-07-29T20:38:57;21.80;70.00
28959;DHT22;16066;0.000;0.000;2023-07-29T20:41:23;21.80;70.00
28959;DHT22;16066;0.000;0.000;2023-07-29T20:43:50;21.80;70.00
28959;DHT22;16066;0.000;0.000;2023-07-29T20:46:21;21.80;69.90
28959;DHT22;16066;0.000;0.000;2023-07-29T20:48:47;21.90;69.90
28959;DHT22;16066;0.000;0.000;2023-07-29T20:51:15;21.90;69.70
28959;DHT22;16066;0.000;0.000;2023-07-29T20:53:42;22.00;69.60
28959;DHT22;16066;0.000;0.000;2023-07-29T20:56:07;21.90;69.60
28959;DHT22;16066;0.000;0.000;2023-07-29T20:58:33;21.90;69.80
28959;DHT22;16066;0.000;0.000;2023-07-29T21:00:58;21.90;69.70
28959;DHT22;16066;0.000;0.000;2023-07-29T21:03:24;21.90;69.60
28959;DHT22;16066;0.000;0.000;2023-07-29T21:05:50;21.90;70.50
28959;DHT22;16066;0.000;0.000;2023-07-29T21:08:16;21.90;69.80
28959;DHT22;16066;0.000;0.000;2023-07-29T21:10:41;21.90;69.60
28959;DHT22;16066;0.000;0.000;2023-07-29T21:13:07;21.90;69.70
28959;DHT22;16066;0.000;0.000;2023-07-29T21:15:32;21.90;69.70
28959;DHT22;16066;0.000;0.000;2023-07-29T21:17:58;21.90;69.50